WetterOnline ( https://www.wetteronline.de )

Wetter aktuell Krayenberggemeinde

Aktuelles Wetter: Eisenach (312m)

6-stündlich | Neueste Meldungen
Ortszeit Temperatur Wetter
Mo, 14.10. 14:00 23.0° C leicht bewölkt
Mo, 14.10. 8:00 14.6° C bewölkt
Mo, 14.10. 2:00 19.0° C leicht bewölkt
So, 13.10. 20:00 21.6° C wolkenlos
So, 13.10. 14:00 21.5° C bedeckt
So, 13.10. 8:00 16.6° C fast wolkenlos
So, 13.10. 2:00 18.0° C bewölkt
Sa, 12.10. 20:00 18.1° C bewölkt
Ortszeit Temperatur Wetter
Mo, 14.10. 15:00 22.8° C leicht bewölkt
Mo, 14.10. 14:50 22.8° C leicht bewölkt
Mo, 14.10. 14:40 22.6° C leicht bewölkt
Mo, 14.10. 14:30 22.8° C leicht bewölkt
Mo, 14.10. 14:20 22.8° C leicht bewölkt
Mo, 14.10. 14:10 23.2° C wolkig
Mo, 14.10. 14:00 23.0° C leicht bewölkt
Mo, 14.10. 13:30 22.4° C leicht bewölkt
Mo, 14.10. 13:00 22.3° C leicht bewölkt
Mo, 14.10. 12:30 21.3° C leicht bewölkt
Mo, 14.10. 12:00 20.9° C wolkenlos
Ortszeit Relative Feuchte Sichtweite
Mo, 14.10. 14:00 52% 30 km
Mo, 14.10. 8:00 82% 50 km
Mo, 14.10. 2:00 64% 60 km
So, 13.10. 20:00 57% 60 km
So, 13.10. 14:00 61% >70 km
So, 13.10. 8:00 79% 55 km
So, 13.10. 2:00 70% 60 km
Sa, 12.10. 20:00 65% 55 km
Ortszeit Relative Feuchte Sichtweite
Mo, 14.10. 15:00 50% 35 km
Mo, 14.10. 14:50 50% -
Mo, 14.10. 14:40 51% -
Mo, 14.10. 14:30 51% 30 km
Mo, 14.10. 14:20 51% -
Mo, 14.10. 14:10 51% -
Mo, 14.10. 14:00 52% 30 km
Mo, 14.10. 13:30 54% 45 km
Mo, 14.10. 13:00 56% 40 km
Mo, 14.10. 12:30 57% 35 km
Mo, 14.10. 12:00 60% 10 km
Ortszeit Niederschlagsmenge Niederschlagsart
Mo, 14.10. 14:00 0.0 l/m2 in 6 Std. -
Mo, 14.10. 8:00 0.0 l/m2 in 12 Std. -
Mo, 14.10. 2:00 0.0 l/m2 in 6 Std. -
So, 13.10. 20:00 0.0 l/m2 in 12 Std. -
So, 13.10. 14:00 0.0 l/m2 in 6 Std. -
So, 13.10. 8:00 0.0 l/m2 in 12 Std. -
So, 13.10. 2:00 0.0 l/m2 in 6 Std. -
Sa, 12.10. 20:00 0.0 l/m2 in 12 Std. -
Ortszeit Niederschlagsmenge Niederschlagsart
Mo, 14.10. 15:00 0.0 l/m2 in 1 Std. -
Mo, 14.10. 14:50 keine Meldung -
Mo, 14.10. 14:40 keine Meldung -
Mo, 14.10. 14:30 0.0 l/m2 in 1 Std. -
Mo, 14.10. 14:20 keine Meldung -
Mo, 14.10. 14:10 keine Meldung -
Mo, 14.10. 14:00 0.0 l/m2 in 1 Std. -
Mo, 14.10. 13:30 0.0 l/m2 in 1 Std. -
Mo, 14.10. 13:00 0.0 l/m2 in 1 Std. -
Mo, 14.10. 12:30 0.0 l/m2 in 1 Std. -
Mo, 14.10. 12:00 0.0 l/m2 in 1 Std. -
Ortszeit Stärke Spitze Richtung
km/h Bft. km/h Grad Sektor
Mo, 14.10. 14:00 4 1 14 270° W
Mo, 14.10. 8:00 4 1 22 290° W
Mo, 14.10. 2:00 11 2 40 250° W
So, 13.10. 20:00 22 4 41 210° SW
So, 13.10. 14:00 20 4 33 190° S
So, 13.10. 8:00 13 3 30 230° SW
So, 13.10. 2:00 17 3 35 220° SW
Sa, 12.10. 20:00 14 3 47 230° SW
Ortszeit Stärke Spitze Richtung
km/h Bft. km/h Grad Sektor
Mo, 14.10. 15:00 19 3 28 180° S
Mo, 14.10. 14:50 19 3 - 180° S
Mo, 14.10. 14:40 18 3 - 180° S
Mo, 14.10. 14:30 14 3 22 220° SW
Mo, 14.10. 14:20 14 3 - 220° SW
Mo, 14.10. 14:10 13 3 - 220° SW
Mo, 14.10. 14:00 4 1 14 270° W
Mo, 14.10. 13:30 4 1 11 80° O
Mo, 14.10. 13:00 4 1 14 160° S
Mo, 14.10. 12:30 4 1 11 70° O
Mo, 14.10. 12:00 4 1 11 60° NO
Ortszeit Untergrenze Bedeckung Gattung
total tief tief mittel hoch
Mo, 14.10. 14:00 9000 m 8/8 0/8 - - -
Mo, 14.10. 8:00 6900 m 7/8 7/8 - - -
Mo, 14.10. 2:00 6900 m 4/8 4/8 - - -
So, 13.10. 20:00 - 0/8 0/8 - - -
So, 13.10. 14:00 4200 m 8/8 8/8 - - -
So, 13.10. 8:00 1080 m 1/8 1/8 - - -
So, 13.10. 2:00 810 m 7/8 8/8 - - -
Sa, 12.10. 20:00 2700 m 8/8 5/8 - - -
Ortszeit Bedeckungsgrad in Achtel und Wolkenuntergrenze
Mo, 14.10. 15:00 3(9000m)
Mo, 14.10. 14:50 3(9000m)
Mo, 14.10. 14:40 3(9000m)
Mo, 14.10. 14:30 4(9000m) 6(9000m)
Mo, 14.10. 14:20 4(9000m) 6(9000m)
Mo, 14.10. 14:10 7(9000m)
Mo, 14.10. 14:00 8(9000m)
Mo, 14.10. 13:30 5(8700m)
Mo, 14.10. 13:00 1(6600m)
Mo, 14.10. 12:30 3(6600m) 3(6900m)
Mo, 14.10. 12:00 keine Wolken
Ortszeit Luftdruck NN (hPa) Tendenz (hPa in 3 Std.)
Mo, 14.10. 14:00 1013 - 1,4
Mo, 14.10. 8:00 1015 + 0,8
Mo, 14.10. 2:00 1013 + 0,6
So, 13.10. 20:00 1011 - 0,2
So, 13.10. 14:00 1013 - 0,6
So, 13.10. 8:00 1013 + 0,2
So, 13.10. 2:00 1013 + 0,2
Sa, 12.10. 20:00 1013 + 0,3
Ortszeit Luftdruck NN (hPa) Tendenz (hPa in 3 Std.)
Mo, 14.10. 15:00 1013 - 1,5
Mo, 14.10. 14:50 1013 keine Meldung
Mo, 14.10. 14:40 1013 keine Meldung
Mo, 14.10. 14:30 1013 - 1,4
Mo, 14.10. 14:20 1013 keine Meldung
Mo, 14.10. 14:10 1013 keine Meldung
Mo, 14.10. 14:00 1013 - 1,4
Mo, 14.10. 13:30 1014 - 1,2
Mo, 14.10. 13:00 1014 - 1,0
Mo, 14.10. 12:30 1014 - 0,7
Mo, 14.10. 12:00 1015 - 0,4
Ortszeit Schneehöhe (cm)
Mo, 14.10. 14:00 0
Mo, 14.10. 8:00 0
Mo, 14.10. 2:00 0
So, 13.10. 20:00 0
So, 13.10. 14:00 0
So, 13.10. 8:00 0
So, 13.10. 2:00 0
Sa, 12.10. 20:00 0
Ortszeit Schneehöhe (cm)
Mo, 14.10. 15:00 0
Mo, 14.10. 14:50 0
Mo, 14.10. 14:40 0
Mo, 14.10. 14:30 0
Mo, 14.10. 14:20 0
Mo, 14.10. 14:10 0
Mo, 14.10. 14:00 0
Mo, 14.10. 13:30 0
Mo, 14.10. 13:00 0
Mo, 14.10. 12:30 0
Mo, 14.10. 12:00 0
Link zu dieser Seite / Seite empfehlen

Das Wetter in ...